sensor_id;sensor_type;location;lat;lon;timestamp;temperature;humidity
57108;DHT22;42987;52.916;6.542;2023-05-10T00:01:13;13.50;99.90
57108;DHT22;42987;52.916;6.542;2023-05-10T00:03:39;13.50;99.90
57108;DHT22;42987;52.916;6.542;2023-05-10T00:06:05;13.50;99.90
57108;DHT22;42987;52.916;6.542;2023-05-10T00:08:31;13.50;99.90
57108;DHT22;42987;52.916;6.542;2023-05-10T00:10:57;13.50;99.90
57108;DHT22;42987;52.916;6.542;2023-05-10T00:13:23;13.40;99.90
57108;DHT22;42987;52.916;6.542;2023-05-10T00:15:49;13.40;99.90
57108;DHT22;42987;52.916;6.542;2023-05-10T00:18:15;13.40;99.90
57108;DHT22;42987;52.916;6.542;2023-05-10T00:20:41;13.40;99.90
57108;DHT22;42987;52.916;6.542;2023-05-10T00:23:06;13.40;99.90
57108;DHT22;42987;52.916;6.542;2023-05-10T00:25:32;13.40;99.90
57108;DHT22;42987;52.916;6.542;2023-05-10T00:28:02;13.40;99.90
57108;DHT22;42987;52.916;6.542;2023-05-10T00:30:28;13.40;99.90
57108;DHT22;42987;52.916;6.542;2023-05-10T00:32:53;13.40;99.90
57108;DHT22;42987;52.916;6.542;2023-05-10T00:35:19;13.40;99.90
57108;DHT22;42987;52.916;6.542;2023-05-10T00:37:50;13.40;99.90
57108;DHT22;42987;52.916;6.542;2023-05-10T00:40:16;13.40;99.90
57108;DHT22;42987;52.916;6.542;2023-05-10T00:42:42;13.40;99.90
57108;DHT22;42987;52.916;6.542;2023-05-10T00:45:08;13.40;99.90
57108;DHT22;42987;52.916;6.542;2023-05-10T00:47:34;13.40;99.90
57108;DHT22;42987;52.916;6.542;2023-05-10T00:50:00;13.40;99.90
57108;DHT22;42987;52.916;6.542;2023-05-10T00:52:27;13.40;99.90
57108;DHT22;42987;52.916;6.542;2023-05-10T00:54:57;13.30;99.90
57108;DHT22;42987;52.916;6.542;2023-05-10T00:57:24;13.30;99.90
57108;DHT22;42987;52.916;6.542;2023-05-10T00:59:50;13.30;99.90
57108;DHT22;42987;52.916;6.542;2023-05-10T01:02:17;13.30;99.90
57108;DHT22;42987;52.916;6.542;2023-05-10T01:04:43;13.30;99.90
57108;DHT22;42987;52.916;6.542;2023-05-10T01:07:09;13.20;99.90
57108;DHT22;42987;52.916;6.542;2023-05-10T01:09:35;13.30;99.90
57108;DHT22;42987;52.916;6.542;2023-05-10T01:12:01;13.30;99.90
57108;DHT22;42987;52.916;6.542;2023-05-10T01:14:28;13.30;99.90
57108;DHT22;42987;52.916;6.542;2023-05-10T01:16:55;13.30;99.90
57108;DHT22;42987;52.916;6.542;2023-05-10T01:19:26;13.30;99.90
57108;DHT22;42987;52.916;6.542;2023-05-10T01:33:01;13.20;99.90
57108;DHT22;42987;52.916;6.542;2023-05-10T01:35:52;13.20;99.90
57108;DHT22;42987;52.916;6.542;2023-05-10T01:38:32;13.20;99.90
57108;DHT22;42987;52.916;6.542;2023-05-10T01:44:06;13.20;99.90
57108;DHT22;42987;52.916;6.542;2023-05-10T01:46:38;13.20;99.90
57108;DHT22;42987;52.916;6.542;2023-05-10T01:49:15;13.20;99.90
57108;DHT22;42987;52.916;6.542;2023-05-10T01:51:54;13.20;99.90
57108;DHT22;42987;52.916;6.542;2023-05-10T01:54:27;13.20;99.90
57108;DHT22;42987;52.916;6.542;2023-05-10T01:57:03;13.20;99.90
57108;DHT22;42987;52.916;6.542;2023-05-10T01:59:34;13.20;99.90
57108;DHT22;42987;52.916;6.542;2023-05-10T02:02:07;13.20;99.90
57108;DHT22;42987;52.916;6.542;2023-05-10T02:04:39;13.20;99.90
57108;DHT22;42987;52.916;6.542;2023-05-10T02:07:06;13.10;99.90
57108;DHT22;42987;52.916;6.542;2023-05-10T02:09:34;13.20;99.90
57108;DHT22;42987;52.916;6.542;2023-05-10T02:12:02;13.10;99.90
57108;DHT22;42987;52.916;6.542;2023-05-10T02:14:35;13.10;99.90
57108;DHT22;42987;52.916;6.542;2023-05-10T02:17:06;13.10;99.90
57108;DHT22;42987;52.916;6.542;2023-05-10T02:19:34;13.10;99.90
57108;DHT22;42987;52.916;6.542;2023-05-10T02:22:03;13.10;99.90
57108;DHT22;42987;52.916;6.542;2023-05-10T02:24:33;13.10;99.90
57108;DHT22;42987;52.916;6.542;2023-05-10T02:26:59;13.10;99.90
57108;DHT22;42987;52.916;6.542;2023-05-10T02:29:29;13.10;99.90
57108;DHT22;42987;52.916;6.542;2023-05-10T02:31:55;13.10;99.90
57108;DHT22;42987;52.916;6.542;2023-05-10T02:34:23;13.10;99.90
57108;DHT22;42987;52.916;6.542;2023-05-10T02:36:54;13.10;99.90
57108;DHT22;42987;52.916;6.542;2023-05-10T02:39:24;13.10;99.90
57108;DHT22;42987;52.916;6.542;2023-05-10T02:41:51;13.00;99.90
57108;DHT22;42987;52.916;6.542;2023-05-10T02:44:19;13.10;99.90
57108;DHT22;42987;52.916;6.542;2023-05-10T02:46:45;13.00;99.90
57108;DHT22;42987;52.916;6.542;2023-05-10T02:49:12;13.10;99.90
57108;DHT22;42987;52.916;6.542;2023-05-10T02:51:44;13.00;99.90
57108;DHT22;42987;52.916;6.542;2023-05-10T02:54:15;13.00;99.90
57108;DHT22;42987;52.916;6.542;2023-05-10T02:56:55;13.00;99.90
57108;DHT22;42987;52.916;6.542;2023-05-10T02:59:22;13.00;99.90
57108;DHT22;42987;52.916;6.542;2023-05-10T03:01:47;13.00;99.90
57108;DHT22;42987;52.916;6.542;2023-05-10T03:04:13;13.00;99.90
57108;DHT22;42987;52.916;6.542;2023-05-10T03:06:39;13.00;99.90
57108;DHT22;42987;52.916;6.542;2023-05-10T03:09:05;13.00;99.90
57108;DHT22;42987;52.916;6.542;2023-05-10T03:20:04;13.00;99.90
57108;DHT22;42987;52.916;6.542;2023-05-10T03:22:36;13.00;99.90
57108;DHT22;42987;52.916;6.542;2023-05-10T03:25:06;13.00;99.90
57108;DHT22;42987;52.916;6.542;2023-05-10T03:27:35;12.90;99.90
57108;DHT22;42987;52.916;6.542;2023-05-10T03:30:02;12.90;99.90
57108;DHT22;42987;52.916;6.542;2023-05-10T03:32:29;12.90;99.90
57108;DHT22;42987;52.916;6.542;2023-05-10T03:34:57;12.90;99.90
57108;DHT22;42987;52.916;6.542;2023-05-10T03:37:23;12.90;99.90
57108;DHT22;42987;52.916;6.542;2023-05-10T03:39:48;12.90;99.90
57108;DHT22;42987;52.916;6.542;2023-05-10T03:42:14;12.90;99.90
57108;DHT22;42987;52.916;6.542;2023-05-10T03:44:40;12.80;99.90
57108;DHT22;42987;52.916;6.542;2023-05-10T03:47:06;12.90;99.90
57108;DHT22;42987;52.916;6.542;2023-05-10T03:49:32;12.80;99.90
57108;DHT22;42987;52.916;6.542;2023-05-10T03:51:58;12.90;99.90
57108;DHT22;42987;52.916;6.542;2023-05-10T03:54:24;12.80;99.90
57108;DHT22;42987;52.916;6.542;2023-05-10T03:56:49;12.80;99.90
57108;DHT22;42987;52.916;6.542;2023-05-10T03:59:16;12.80;99.90
57108;DHT22;42987;52.916;6.542;2023-05-10T04:01:41;12.80;99.90
57108;DHT22;42987;52.916;6.542;2023-05-10T04:04:07;12.80;99.90
57108;DHT22;42987;52.916;6.542;2023-05-10T04:06:33;12.80;99.90
57108;DHT22;42987;52.916;6.542;2023-05-10T04:08:59;12.70;99.90
57108;DHT22;42987;52.916;6.542;2023-05-10T04:11:27;12.70;99.90
57108;DHT22;42987;52.916;6.542;2023-05-10T04:13:53;12.70;99.90
57108;DHT22;42987;52.916;6.542;2023-05-10T04:16:19;12.70;99.90
57108;DHT22;42987;52.916;6.542;2023-05-10T04:18:45;12.70;99.90
57108;DHT22;42987;52.916;6.542;2023-05-10T04:21:14;12.70;99.90
57108;DHT22;42987;52.916;6.542;2023-05-10T04:23:40;12.80;99.90
57108;DHT22;42987;52.916;6.542;2023-05-10T04:26:09;12.70;99.90
57108;DHT22;42987;52.916;6.542;2023-05-10T04:28:35;12.70;99.90
57108;DHT22;42987;52.916;6.542;2023-05-10T04:31:09;12.70;99.90
57108;DHT22;42987;52.916;6.542;2023-05-10T04:33:36;12.70;99.90
57108;DHT22;42987;52.916;6.542;2023-05-10T04:36:03;12.70;99.90
57108;DHT22;42987;52.916;6.542;2023-05-10T04:38:29;12.70;99.90
57108;DHT22;42987;52.916;6.542;2023-05-10T04:41:04;12.70;99.90
57108;DHT22;42987;52.916;6.542;2023-05-10T04:43:30;12.70;99.90
57108;DHT22;42987;52.916;6.542;2023-05-10T04:45:57;12.70;99.90
57108;DHT22;42987;52.916;6.542;2023-05-10T04:48:22;12.70;99.90
57108;DHT22;42987;52.916;6.542;2023-05-10T04:50:48;12.70;99.90
57108;DHT22;42987;52.916;6.542;2023-05-10T04:53:14;12.70;99.90
57108;DHT22;42987;52.916;6.542;2023-05-10T04:55:40;12.70;99.90
57108;DHT22;42987;52.916;6.542;2023-05-10T04:58:06;12.70;99.90
57108;DHT22;42987;52.916;6.542;2023-05-10T05:00:35;12.70;99.90
57108;DHT22;42987;52.916;6.542;2023-05-10T05:03:01;12.70;99.90
57108;DHT22;42987;52.916;6.542;2023-05-10T05:05:27;12.80;99.90
57108;DHT22;42987;52.916;6.542;2023-05-10T05:07:53;12.70;99.90
57108;DHT22;42987;52.916;6.542;2023-05-10T05:10:18;12.80;99.90
57108;DHT22;42987;52.916;6.542;2023-05-10T05:12:44;12.80;99.90
57108;DHT22;42987;52.916;6.542;2023-05-10T05:15:10;12.80;99.90
57108;DHT22;42987;52.916;6.542;2023-05-10T05:17:36;12.80;99.90
57108;DHT22;42987;52.916;6.542;2023-05-10T05:20:02;12.80;99.90
57108;DHT22;42987;52.916;6.542;2023-05-10T05:22:31;12.80;99.90
57108;DHT22;42987;52.916;6.542;2023-05-10T05:24:57;12.80;99.90
57108;DHT22;42987;52.916;6.542;2023-05-10T05:27:27;12.80;99.90
57108;DHT22;42987;52.916;6.542;2023-05-10T05:29:54;12.80;99.90
57108;DHT22;42987;52.916;6.542;2023-05-10T05:32:21;12.80;99.90
57108;DHT22;42987;52.916;6.542;2023-05-10T05:34:47;12.80;99.90
57108;DHT22;42987;52.916;6.542;2023-05-10T05:37:19;12.80;99.90
57108;DHT22;42987;52.916;6.542;2023-05-10T05:39:46;12.90;99.90
57108;DHT22;42987;52.916;6.542;2023-05-10T05:42:13;12.90;99.90
57108;DHT22;42987;52.916;6.542;2023-05-10T05:44:39;12.90;99.90
57108;DHT22;42987;52.916;6.542;2023-05-10T05:47:06;12.90;99.90
57108;DHT22;42987;52.916;6.542;2023-05-10T05:49:32;12.90;99.90
57108;DHT22;42987;52.916;6.542;2023-05-10T05:52:02;12.90;99.90
57108;DHT22;42987;52.916;6.542;2023-05-10T05:54:29;12.90;99.90
57108;DHT22;42987;52.916;6.542;2023-05-10T05:57:01;12.90;99.90
57108;DHT22;42987;52.916;6.542;2023-05-10T05:59:27;12.90;99.90
57108;DHT22;42987;52.916;6.542;2023-05-10T06:01:53;12.90;99.90
57108;DHT22;42987;52.916;6.542;2023-05-10T06:04:19;12.90;99.90
57108;DHT22;42987;52.916;6.542;2023-05-10T06:06:45;12.90;99.90
57108;DHT22;42987;52.916;6.542;2023-05-10T06:09:11;12.90;99.90
57108;DHT22;42987;52.916;6.542;2023-05-10T06:11:37;13.00;99.90
57108;DHT22;42987;52.916;6.542;2023-05-10T06:14:04;13.00;99.90
57108;DHT22;42987;52.916;6.542;2023-05-10T06:16:30;13.00;99.90
57108;DHT22;42987;52.916;6.542;2023-05-10T06:18:56;13.00;99.90
57108;DHT22;42987;52.916;6.542;2023-05-10T06:21:22;13.00;99.90
57108;DHT22;42987;52.916;6.542;2023-05-10T06:23:48;13.10;99.90
57108;DHT22;42987;52.916;6.542;2023-05-10T06:26:14;13.10;99.90
57108;DHT22;42987;52.916;6.542;2023-05-10T06:28:40;13.00;99.90
57108;DHT22;42987;52.916;6.542;2023-05-10T06:31:09;13.10;99.90
57108;DHT22;42987;52.916;6.542;2023-05-10T06:33:36;13.10;99.90
57108;DHT22;42987;52.916;6.542;2023-05-10T06:36:03;13.10;99.90
57108;DHT22;42987;52.916;6.542;2023-05-10T06:38:29;13.10;99.90
57108;DHT22;42987;52.916;6.542;2023-05-10T06:40:54;13.10;99.90
57108;DHT22;42987;52.916;6.542;2023-05-10T06:43:23;13.10;99.90
57108;DHT22;42987;52.916;6.542;2023-05-10T06:45:53;13.10;99.90
57108;DHT22;42987;52.916;6.542;2023-05-10T06:48:18;13.10;99.90
57108;DHT22;42987;52.916;6.542;2023-05-10T06:50:44;13.10;99.90
57108;DHT22;42987;52.916;6.542;2023-05-10T06:53:10;13.10;99.90
57108;DHT22;42987;52.916;6.542;2023-05-10T06:55:37;13.10;99.90
57108;DHT22;42987;52.916;6.542;2023-05-10T06:58:03;13.20;99.90
57108;DHT22;42987;52.916;6.542;2023-05-10T07:00:29;13.20;99.90
57108;DHT22;42987;52.916;6.542;2023-05-10T07:02:55;13.20;99.90
57108;DHT22;42987;52.916;6.542;2023-05-10T07:05:21;13.20;99.90
57108;DHT22;42987;52.916;6.542;2023-05-10T07:07:47;13.20;99.90
57108;DHT22;42987;52.916;6.542;2023-05-10T07:10:13;13.20;99.90
57108;DHT22;42987;52.916;6.542;2023-05-10T07:12:39;13.20;99.90
57108;DHT22;42987;52.916;6.542;2023-05-10T07:15:05;13.30;99.90
57108;DHT22;42987;52.916;6.542;2023-05-10T07:17:32;13.30;99.90
57108;DHT22;42987;52.916;6.542;2023-05-10T07:19:59;13.30;99.90
57108;DHT22;42987;52.916;6.542;2023-05-10T07:22:26;13.30;99.90
57108;DHT22;42987;52.916;6.542;2023-05-10T07:24:51;13.30;99.90
57108;DHT22;42987;52.916;6.542;2023-05-10T07:27:17;13.30;99.90
57108;DHT22;42987;52.916;6.542;2023-05-10T07:29:43;13.30;99.90
57108;DHT22;42987;52.916;6.542;2023-05-10T07:32:09;13.40;99.90
57108;DHT22;42987;52.916;6.542;2023-05-10T07:34:34;13.40;99.90
57108;DHT22;42987;52.916;6.542;2023-05-10T07:37:01;13.40;99.90
57108;DHT22;42987;52.916;6.542;2023-05-10T07:39:27;13.40;99.90
57108;DHT22;42987;52.916;6.542;2023-05-10T07:41:54;13.40;99.90
57108;DHT22;42987;52.916;6.542;2023-05-10T07:44:21;13.40;99.90
57108;DHT22;42987;52.916;6.542;2023-05-10T07:46:47;13.40;99.90
57108;DHT22;42987;52.916;6.542;2023-05-10T07:49:14;13.40;99.90
57108;DHT22;42987;52.916;6.542;2023-05-10T07:51:40;13.40;99.90
57108;DHT22;42987;52.916;6.542;2023-05-10T07:54:06;13.40;99.90
57108;DHT22;42987;52.916;6.542;2023-05-10T07:56:32;13.40;99.90
57108;DHT22;42987;52.916;6.542;2023-05-10T07:58:59;13.40;99.90
57108;DHT22;42987;52.916;6.542;2023-05-10T08:01:25;13.40;99.90
57108;DHT22;42987;52.916;6.542;2023-05-10T08:03:51;13.40;99.90
57108;DHT22;42987;52.916;6.542;2023-05-10T08:06:22;13.40;99.90
57108;DHT22;42987;52.916;6.542;2023-05-10T08:08:48;13.50;99.90
57108;DHT22;42987;52.916;6.542;2023-05-10T08:11:22;13.40;99.90
57108;DHT22;42987;52.916;6.542;2023-05-10T08:13:49;13.40;99.90
57108;DHT22;42987;52.916;6.542;2023-05-10T08:16:18;13.40;99.90
57108;DHT22;42987;52.916;6.542;2023-05-10T08:18:45;13.40;99.90
57108;DHT22;42987;52.916;6.542;2023-05-10T08:21:12;13.50;99.90
57108;DHT22;42987;52.916;6.542;2023-05-10T08:23:39;13.50;99.90
57108;DHT22;42987;52.916;6.542;2023-05-10T08:26:04;13.60;99.90
57108;DHT22;42987;52.916;6.542;2023-05-10T08:28:30;13.60;99.90
57108;DHT22;42987;52.916;6.542;2023-05-10T08:30:57;13.70;99.90
57108;DHT22;42987;52.916;6.542;2023-05-10T08:33:25;13.80;99.90
57108;DHT22;42987;52.916;6.542;2023-05-10T08:35:51;13.80;99.90
57108;DHT22;42987;52.916;6.542;2023-05-10T08:38:18;13.80;99.90
57108;DHT22;42987;52.916;6.542;2023-05-10T08:40:44;13.90;99.90
57108;DHT22;42987;52.916;6.542;2023-05-10T08:43:11;13.80;99.90
57108;DHT22;42987;52.916;6.542;2023-05-10T08:45:39;13.80;99.90
57108;DHT22;42987;52.916;6.542;2023-05-10T08:48:07;13.80;99.90
57108;DHT22;42987;52.916;6.542;2023-05-10T08:50:37;13.90;99.90
57108;DHT22;42987;52.916;6.542;2023-05-10T08:53:10;13.90;99.90
57108;DHT22;42987;52.916;6.542;2023-05-10T08:55:36;14.00;99.90
57108;DHT22;42987;52.916;6.542;2023-05-10T08:58:04;14.00;99.90
57108;DHT22;42987;52.916;6.542;2023-05-10T09:00:34;14.00;99.90
57108;DHT22;42987;52.916;6.542;2023-05-10T09:03:04;14.00;99.90
57108;DHT22;42987;52.916;6.542;2023-05-10T09:05:30;14.00;99.90
57108;DHT22;42987;52.916;6.542;2023-05-10T09:07:56;14.10;99.90
57108;DHT22;42987;52.916;6.542;2023-05-10T09:10:22;14.20;99.90
57108;DHT22;42987;52.916;6.542;2023-05-10T09:12:51;14.30;99.90
57108;DHT22;42987;52.916;6.542;2023-05-10T09:15:19;14.30;99.90
57108;DHT22;42987;52.916;6.542;2023-05-10T09:17:46;14.30;99.90
57108;DHT22;42987;52.916;6.542;2023-05-10T09:20:13;14.30;99.90
57108;DHT22;42987;52.916;6.542;2023-05-10T09:22:39;14.40;99.90
57108;DHT22;42987;52.916;6.542;2023-05-10T09:25:09;14.40;99.90
57108;DHT22;42987;52.916;6.542;2023-05-10T09:27:45;14.50;99.90
57108;DHT22;42987;52.916;6.542;2023-05-10T09:30:26;14.50;99.90
57108;DHT22;42987;52.916;6.542;2023-05-10T09:32:54;14.60;99.90
57108;DHT22;42987;52.916;6.542;2023-05-10T09:35:22;14.60;99.90
57108;DHT22;42987;52.916;6.542;2023-05-10T09:37:50;14.60;99.90
57108;DHT22;42987;52.916;6.542;2023-05-10T09:40:21;14.60;99.90
57108;DHT22;42987;52.916;6.542;2023-05-10T09:43:02;14.50;99.90
57108;DHT22;42987;52.916;6.542;2023-05-10T09:45:29;14.60;99.90
57108;DHT22;42987;52.916;6.542;2023-05-10T09:47:56;14.70;99.90
57108;DHT22;42987;52.916;6.542;2023-05-10T09:50:23;14.80;99.90
57108;DHT22;42987;52.916;6.542;2023-05-10T09:52:57;14.80;99.90
57108;DHT22;42987;52.916;6.542;2023-05-10T09:55:41;14.90;99.90
57108;DHT22;42987;52.916;6.542;2023-05-10T09:58:07;14.80;99.90
57108;DHT22;42987;52.916;6.542;2023-05-10T10:00:43;14.80;99.90
57108;DHT22;42987;52.916;6.542;2023-05-10T10:03:17;14.70;99.90
57108;DHT22;42987;52.916;6.542;2023-05-10T10:05:44;14.80;99.90
57108;DHT22;42987;52.916;6.542;2023-05-10T10:08:10;14.80;99.90
57108;DHT22;42987;52.916;6.542;2023-05-10T10:10:37;14.80;99.90
57108;DHT22;42987;52.916;6.542;2023-05-10T10:13:06;14.90;99.90
57108;DHT22;42987;52.916;6.542;2023-05-10T10:15:33;15.00;99.90
57108;DHT22;42987;52.916;6.542;2023-05-10T10:18:03;15.10;99.90
57108;DHT22;42987;52.916;6.542;2023-05-10T10:20:30;15.20;99.90
57108;DHT22;42987;52.916;6.542;2023-05-10T10:22:56;15.30;99.90
57108;DHT22;42987;52.916;6.542;2023-05-10T10:25:22;15.40;99.90
57108;DHT22;42987;52.916;6.542;2023-05-10T10:30:55;15.50;99.90
57108;DHT22;42987;52.916;6.542;2023-05-10T10:36:14;15.50;99.90
57108;DHT22;42987;52.916;6.542;2023-05-10T10:49:49;15.40;99.90
57108;DHT22;42987;52.916;6.542;2023-05-10T10:52:42;15.40;99.90
57108;DHT22;42987;52.916;6.542;2023-05-10T10:55:13;15.40;99.90
57108;DHT22;42987;52.916;6.542;2023-05-10T10:57:57;15.40;99.90
57108;DHT22;42987;52.916;6.542;2023-05-10T11:00:35;15.40;99.90
57108;DHT22;42987;52.916;6.542;2023-05-10T11:08:33;15.30;99.90
57108;DHT22;42987;52.916;6.542;2023-05-10T11:15:54;15.40;99.90
57108;DHT22;42987;52.916;6.542;2023-05-10T11:18:27;15.50;99.90
57108;DHT22;42987;52.916;6.542;2023-05-10T11:21:03;15.50;99.90
57108;DHT22;42987;52.916;6.542;2023-05-10T11:26:08;15.60;99.90
57108;DHT22;42987;52.916;6.542;2023-05-10T11:28:40;15.50;99.90
57108;DHT22;42987;52.916;6.542;2023-05-10T11:31:07;15.50;99.90
57108;DHT22;42987;52.916;6.542;2023-05-10T11:33:43;15.60;99.90
57108;DHT22;42987;52.916;6.542;2023-05-10T11:36:14;15.60;99.90
57108;DHT22;42987;52.916;6.542;2023-05-10T11:38:40;15.60;99.90
57108;DHT22;42987;52.916;6.542;2023-05-10T11:41:11;15.60;99.90
57108;DHT22;42987;52.916;6.542;2023-05-10T11:43:41;15.60;99.90
57108;DHT22;42987;52.916;6.542;2023-05-10T11:46:10;15.60;99.90
57108;DHT22;42987;52.916;6.542;2023-05-10T11:48:38;15.60;99.90
57108;DHT22;42987;52.916;6.542;2023-05-10T11:51:04;15.70;99.90
57108;DHT22;42987;52.916;6.542;2023-05-10T11:53:31;15.70;99.90
57108;DHT22;42987;52.916;6.542;2023-05-10T11:56:10;15.70;99.90
57108;DHT22;42987;52.916;6.542;2023-05-10T11:58:38;15.80;99.90
57108;DHT22;42987;52.916;6.542;2023-05-10T12:01:05;15.80;99.90
57108;DHT22;42987;52.916;6.542;2023-05-10T12:03:32;15.80;99.90
57108;DHT22;42987;52.916;6.542;2023-05-10T12:05:59;15.80;99.90
57108;DHT22;42987;52.916;6.542;2023-05-10T12:08:27;15.80;99.90
57108;DHT22;42987;52.916;6.542;2023-05-10T12:11:03;15.80;99.90
57108;DHT22;42987;52.916;6.542;2023-05-10T12:13:29;15.70;99.90
57108;DHT22;42987;52.916;6.542;2023-05-10T12:15:59;15.60;99.90
57108;DHT22;42987;52.916;6.542;2023-05-10T12:18:25;15.50;99.90
57108;DHT22;42987;52.916;6.542;2023-05-10T12:20:54;15.50;99.90
57108;DHT22;42987;52.916;6.542;2023-05-10T12:23:20;15.40;99.90
57108;DHT22;42987;52.916;6.542;2023-05-10T12:25:46;15.40;99.90
57108;DHT22;42987;52.916;6.542;2023-05-10T12:28:12;15.30;99.90
57108;DHT22;42987;52.916;6.542;2023-05-10T12:30:38;15.30;99.90
57108;DHT22;42987;52.916;6.542;2023-05-10T12:33:09;15.30;99.90
57108;DHT22;42987;52.916;6.542;2023-05-10T12:35:49;15.30;99.90
57108;DHT22;42987;52.916;6.542;2023-05-10T12:38:39;15.30;99.90
57108;DHT22;42987;52.916;6.542;2023-05-10T12:41:10;15.30;99.90
57108;DHT22;42987;52.916;6.542;2023-05-10T12:43:37;15.20;99.90
57108;DHT22;42987;52.916;6.542;2023-05-10T12:46:13;15.20;99.90
57108;DHT22;42987;52.916;6.542;2023-05-10T12:48:41;15.20;99.90
57108;DHT22;42987;52.916;6.542;2023-05-10T12:51:07;15.10;99.90
57108;DHT22;42987;52.916;6.542;2023-05-10T12:53:51;15.10;99.90
57108;DHT22;42987;52.916;6.542;2023-05-10T12:56:17;15.10;99.90
57108;DHT22;42987;52.916;6.542;2023-05-10T12:58:43;15.00;99.90
57108;DHT22;42987;52.916;6.542;2023-05-10T13:01:13;15.00;99.90
57108;DHT22;42987;52.916;6.542;2023-05-10T13:03:39;15.00;99.90
57108;DHT22;42987;52.916;6.542;2023-05-10T13:06:05;15.00;99.90
57108;DHT22;42987;52.916;6.542;2023-05-10T13:08:32;15.00;99.90
57108;DHT22;42987;52.916;6.542;2023-05-10T13:10:59;15.00;99.90
57108;DHT22;42987;52.916;6.542;2023-05-10T13:13:25;15.00;99.90
57108;DHT22;42987;52.916;6.542;2023-05-10T13:15:51;15.00;99.90
57108;DHT22;42987;52.916;6.542;2023-05-10T13:18:17;15.00;99.90
57108;DHT22;42987;52.916;6.542;2023-05-10T13:20:43;15.00;99.90
57108;DHT22;42987;52.916;6.542;2023-05-10T13:23:10;15.00;99.90
57108;DHT22;42987;52.916;6.542;2023-05-10T13:25:36;15.00;99.90
57108;DHT22;42987;52.916;6.542;2023-05-10T13:28:02;15.00;99.90
57108;DHT22;42987;52.916;6.542;2023-05-10T13:30:28;15.10;99.90
57108;DHT22;42987;52.916;6.542;2023-05-10T13:32:54;15.10;99.90
57108;DHT22;42987;52.916;6.542;2023-05-10T13:35:23;15.20;99.90
57108;DHT22;42987;52.916;6.542;2023-05-10T13:37:48;15.20;99.90
57108;DHT22;42987;52.916;6.542;2023-05-10T13:40:14;15.30;99.90
57108;DHT22;42987;52.916;6.542;2023-05-10T13:42:41;15.30;99.90
57108;DHT22;42987;52.916;6.542;2023-05-10T13:45:07;15.30;99.90
57108;DHT22;42987;52.916;6.542;2023-05-10T13:47:33;15.40;99.90
57108;DHT22;42987;52.916;6.542;2023-05-10T13:49:59;15.40;99.90
57108;DHT22;42987;52.916;6.542;2023-05-10T13:52:26;15.40;99.90
57108;DHT22;42987;52.916;6.542;2023-05-10T13:54:52;15.50;99.90
57108;DHT22;42987;52.916;6.542;2023-05-10T13:57:23;15.50;99.90
57108;DHT22;42987;52.916;6.542;2023-05-10T13:59:50;15.50;99.90
57108;DHT22;42987;52.916;6.542;2023-05-10T14:02:18;15.60;99.90
57108;DHT22;42987;52.916;6.542;2023-05-10T14:04:44;15.60;99.90
57108;DHT22;42987;52.916;6.542;2023-05-10T14:07:10;15.60;99.90
57108;DHT22;42987;52.916;6.542;2023-05-10T14:09:36;15.60;99.90
57108;DHT22;42987;52.916;6.542;2023-05-10T14:12:05;15.50;99.90
57108;DHT22;42987;52.916;6.542;2023-05-10T14:14:31;15.50;99.90
57108;DHT22;42987;52.916;6.542;2023-05-10T14:16:57;15.50;99.90
57108;DHT22;42987;52.916;6.542;2023-05-10T14:19:22;15.50;99.90
57108;DHT22;42987;52.916;6.542;2023-05-10T14:21:48;15.50;99.90
57108;DHT22;42987;52.916;6.542;2023-05-10T14:24:14;15.50;99.90
57108;DHT22;42987;52.916;6.542;2023-05-10T14:26:40;15.50;99.90
57108;DHT22;42987;52.916;6.542;2023-05-10T14:29:06;15.50;99.90
57108;DHT22;42987;52.916;6.542;2023-05-10T14:31:33;15.50;99.90
57108;DHT22;42987;52.916;6.542;2023-05-10T14:34:01;15.50;99.90
57108;DHT22;42987;52.916;6.542;2023-05-10T14:36:28;15.50;99.90
57108;DHT22;42987;52.916;6.542;2023-05-10T14:38:54;15.50;99.90
57108;DHT22;42987;52.916;6.542;2023-05-10T14:41:23;15.50;99.90
57108;DHT22;42987;52.916;6.542;2023-05-10T14:43:52;15.50;99.90
57108;DHT22;42987;52.916;6.542;2023-05-10T14:46:18;15.50;99.90
57108;DHT22;42987;52.916;6.542;2023-05-10T14:48:45;15.40;99.90
57108;DHT22;42987;52.916;6.542;2023-05-10T14:51:11;15.50;99.90
57108;DHT22;42987;52.916;6.542;2023-05-10T14:53:37;15.50;99.90
57108;DHT22;42987;52.916;6.542;2023-05-10T14:56:02;15.50;99.90
57108;DHT22;42987;52.916;6.542;2023-05-10T14:58:28;15.60;99.90
57108;DHT22;42987;52.916;6.542;2023-05-10T15:00:55;15.60;99.90
57108;DHT22;42987;52.916;6.542;2023-05-10T15:03:24;15.70;99.90
57108;DHT22;42987;52.916;6.542;2023-05-10T15:05:53;15.70;99.90
57108;DHT22;42987;52.916;6.542;2023-05-10T15:08:19;15.70;99.90
57108;DHT22;42987;52.916;6.542;2023-05-10T15:10:45;15.70;99.90
57108;DHT22;42987;52.916;6.542;2023-05-10T15:13:11;15.70;99.90
57108;DHT22;42987;52.916;6.542;2023-05-10T15:15:36;15.70;99.90
57108;DHT22;42987;52.916;6.542;2023-05-10T15:18:02;15.70;99.90
57108;DHT22;42987;52.916;6.542;2023-05-10T15:20:28;15.80;99.90
57108;DHT22;42987;52.916;6.542;2023-05-10T15:22:54;15.80;99.90
57108;DHT22;42987;52.916;6.542;2023-05-10T15:25:20;15.90;99.90
57108;DHT22;42987;52.916;6.542;2023-05-10T15:27:49;15.90;99.90
57108;DHT22;42987;52.916;6.542;2023-05-10T15:30:15;15.90;99.90
57108;DHT22;42987;52.916;6.542;2023-05-10T15:32:41;15.90;99.90
57108;DHT22;42987;52.916;6.542;2023-05-10T15:35:08;15.90;99.90
57108;DHT22;42987;52.916;6.542;2023-05-10T15:37:35;15.90;99.90
57108;DHT22;42987;52.916;6.542;2023-05-10T15:40:01;15.90;99.90
57108;DHT22;42987;52.916;6.542;2023-05-10T15:42:30;15.90;99.90
57108;DHT22;42987;52.916;6.542;2023-05-10T15:44:57;16.00;99.90
57108;DHT22;42987;52.916;6.542;2023-05-10T15:47:23;16.00;99.90
57108;DHT22;42987;52.916;6.542;2023-05-10T15:49:49;16.10;99.90
57108;DHT22;42987;52.916;6.542;2023-05-10T15:52:15;16.10;99.90
57108;DHT22;42987;52.916;6.542;2023-05-10T15:54:41;16.00;99.90
57108;DHT22;42987;52.916;6.542;2023-05-10T15:57:07;16.10;99.90
57108;DHT22;42987;52.916;6.542;2023-05-10T15:59:33;16.10;99.90
57108;DHT22;42987;52.916;6.542;2023-05-10T16:02:00;16.00;99.90
57108;DHT22;42987;52.916;6.542;2023-05-10T16:04:28;16.00;99.90
57108;DHT22;42987;52.916;6.542;2023-05-10T16:06:54;16.00;99.90
57108;DHT22;42987;52.916;6.542;2023-05-10T16:09:21;16.00;99.90
57108;DHT22;42987;52.916;6.542;2023-05-10T16:11:47;16.00;99.90
57108;DHT22;42987;52.916;6.542;2023-05-10T16:14:13;16.10;99.90
57108;DHT22;42987;52.916;6.542;2023-05-10T16:16:39;16.00;99.90
57108;DHT22;42987;52.916;6.542;2023-05-10T16:19:05;16.00;99.90
57108;DHT22;42987;52.916;6.542;2023-05-10T16:21:31;16.00;99.90
57108;DHT22;42987;52.916;6.542;2023-05-10T16:24:02;16.00;99.90
57108;DHT22;42987;52.916;6.542;2023-05-10T16:26:28;16.00;99.90